Aviation Digital Data Service (ADDS)

Output produced by METARs form (1643 UTC 30 March 2017)
found at http://aviationweather.gov/adds/metars/
 
KARA 301241Z 3013/3112 VRB03KT P6SM FEW007 SCT010 BKN025 
     TEMPO 3013/3016 OVC007 
     FM301600 27009KT P6SM OVC050 
     FM302300 27007KT P6SM SKC